createdAt,value
2022-07-30T00:00:23.844Z,8.40
2022-07-30T00:02:52.561Z,7.90
2022-07-30T00:05:19.390Z,8.67
2022-07-30T00:07:46.325Z,14.60
2022-07-30T00:10:13.443Z,8.17
2022-07-30T00:12:40.308Z,9.87
2022-07-30T00:15:07.915Z,7.17
2022-07-30T00:17:34.818Z,7.20
2022-07-30T00:20:01.955Z,7.20
2022-07-30T00:22:30.929Z,8.37
2022-07-30T00:24:57.900Z,7.90
2022-07-30T00:27:24.873Z,7.83
2022-07-30T00:29:51.702Z,15.60
2022-07-30T00:32:18.617Z,10.33
2022-07-30T00:34:45.542Z,9.30
2022-07-30T00:37:12.381Z,8.77
2022-07-30T00:39:39.237Z,8.53
2022-07-30T00:42:06.249Z,11.90
2022-07-30T00:44:33.241Z,8.50
2022-07-30T00:47:00.439Z,13.40
2022-07-30T00:49:27.890Z,8.20
2022-07-30T00:51:54.800Z,12.37
2022-07-30T00:54:22.242Z,8.40
2022-07-30T00:56:49.598Z,9.87
2022-07-30T00:59:16.639Z,13.77
2022-07-30T01:01:43.575Z,9.90
2022-07-30T01:04:11.941Z,9.17
2022-07-30T01:06:39.981Z,8.57
2022-07-30T01:09:08.104Z,8.50
2022-07-30T01:11:41.139Z,12.17
2022-07-30T01:14:09.610Z,15.80
2022-07-30T01:16:39.939Z,8.60
2022-07-30T01:19:48.465Z,9.53
2022-07-30T01:22:30.860Z,8.40
2022-07-30T01:25:04.177Z,13.10
2022-07-30T01:27:36.505Z,9.00
2022-07-30T01:30:06.614Z,11.40
2022-07-30T01:32:35.282Z,10.77
2022-07-30T01:35:04.148Z,9.10
2022-07-30T01:37:33.191Z,14.57
2022-07-30T01:40:00.680Z,12.60
2022-07-30T01:42:29.798Z,10.50
2022-07-30T01:44:58.554Z,12.20
2022-07-30T01:47:27.699Z,11.13
2022-07-30T01:49:56.168Z,15.00
2022-07-30T01:52:25.799Z,11.30
2022-07-30T01:54:55.858Z,11.10
2022-07-30T01:57:24.394Z,12.40
2022-07-30T01:59:54.892Z,12.67
2022-07-30T02:02:21.832Z,10.47
2022-07-30T02:04:49.492Z,17.70
2022-07-30T02:07:19.081Z,20.27
2022-07-30T02:09:55.567Z,13.17
2022-07-30T02:12:28.792Z,15.07
2022-07-30T02:15:20.147Z,17.30
2022-07-30T02:18:01.467Z,12.13
2022-07-30T02:20:31.092Z,12.93
2022-07-30T02:23:08.699Z,24.00
2022-07-30T02:25:38.576Z,14.20
2022-07-30T02:28:09.862Z,12.60
2022-07-30T02:30:40.791Z,14.23
2022-07-30T02:33:10.718Z,15.67
2022-07-30T02:35:38.811Z,15.20
2022-07-30T02:38:06.401Z,19.87
2022-07-30T02:40:33.286Z,22.10
2022-07-30T02:43:01.717Z,18.70
2022-07-30T02:45:31.118Z,13.97
2022-07-30T02:48:02.373Z,16.27
2022-07-30T02:50:30.971Z,25.17
2022-07-30T02:52:59.788Z,20.30
2022-07-30T02:55:29.894Z,21.50
2022-07-30T02:57:58.938Z,25.90
2022-07-30T03:00:27.943Z,29.93
2022-07-30T03:02:57.149Z,21.40
2022-07-30T03:05:25.991Z,23.53
2022-07-30T03:07:56.445Z,17.40
2022-07-30T03:10:24.950Z,17.43
2022-07-30T03:12:52.388Z,19.63
2022-07-30T03:15:19.447Z,22.17
2022-07-30T03:17:50.694Z,22.10
2022-07-30T03:20:21.402Z,24.50
2022-07-30T03:22:53.006Z,24.30
2022-07-30T03:25:32.041Z,22.67
2022-07-30T03:28:02.725Z,20.80
2022-07-30T03:30:29.841Z,21.97
2022-07-30T03:32:57.946Z,26.90
2022-07-30T03:35:26.441Z,21.70
2022-07-30T03:37:55.630Z,22.77
2022-07-30T03:40:23.597Z,20.67
2022-07-30T03:42:51.159Z,22.20
2022-07-30T03:45:22.127Z,18.60
2022-07-30T03:47:50.990Z,21.03
2022-07-30T03:50:18.350Z,20.40
2022-07-30T03:52:47.073Z,25.73
2022-07-30T03:55:17.145Z,17.63
2022-07-30T03:57:49.730Z,24.07
2022-07-30T04:00:18.558Z,19.97
2022-07-30T04:02:50.471Z,17.27
2022-07-30T04:05:28.596Z,18.97
2022-07-30T04:08:08.293Z,19.60
2022-07-30T04:10:35.761Z,18.57
2022-07-30T04:13:09.201Z,28.20
2022-07-30T04:16:39.568Z,29.80
2022-07-30T04:19:00.080Z,26.07
2022-07-30T04:21:28.534Z,26.00
2022-07-30T04:24:04.761Z,26.30
2022-07-30T04:26:35.836Z,22.87
2022-07-30T04:29:07.506Z,25.17
2022-07-30T04:31:40.670Z,32.50
2022-07-30T04:34:54.570Z,25.53
2022-07-30T04:37:41.446Z,30.83
2022-07-30T04:40:09.390Z,29.73
2022-07-30T04:42:36.462Z,26.00
2022-07-30T04:45:07.380Z,64.10
2022-07-30T04:47:49.334Z,28.50
2022-07-30T04:50:38.559Z,25.83
2022-07-30T04:53:08.311Z,26.30
2022-07-30T04:55:43.062Z,29.83
2022-07-30T04:58:12.330Z,29.90
2022-07-30T05:00:41.389Z,28.03
2022-07-30T05:03:14.442Z,27.23
2022-07-30T05:05:47.163Z,25.07
2022-07-30T05:08:14.471Z,29.37
2022-07-30T05:10:43.156Z,32.67
2022-07-30T05:13:14.367Z,31.27
2022-07-30T05:15:42.484Z,31.63
2022-07-30T05:18:11.598Z,28.40
2022-07-30T05:20:42.204Z,27.40
2022-07-30T05:23:19.697Z,30.83
2022-07-30T05:26:04.283Z,30.50
2022-07-30T05:28:36.716Z,24.90
2022-07-30T05:31:08.692Z,27.10
2022-07-30T05:33:40.873Z,30.47
2022-07-30T05:36:10.407Z,33.30
2022-07-30T05:38:39.097Z,34.47
2022-07-30T05:41:32.940Z,35.27
2022-07-30T05:44:08.415Z,25.43
2022-07-30T05:46:35.620Z,32.83
2022-07-30T05:49:02.605Z,26.37
2022-07-30T05:51:29.618Z,28.20
2022-07-30T05:53:56.537Z,35.03
2022-07-30T05:56:55.575Z,28.10
2022-07-30T05:59:33.198Z,26.70
2022-07-30T06:02:10.132Z,31.63
2022-07-30T06:04:57.449Z,32.30
2022-07-30T06:07:24.913Z,32.03
2022-07-30T06:09:54.323Z,21.27
2022-07-30T06:12:21.328Z,30.70
2022-07-30T06:14:48.698Z,22.60
2022-07-30T06:17:22.970Z,27.40
2022-07-30T06:20:15.627Z,19.80
2022-07-30T06:23:02.847Z,22.50
2022-07-30T06:25:50.718Z,21.10
2022-07-30T06:28:36.924Z,17.20
2022-07-30T06:31:06.973Z,20.43
2022-07-30T06:33:34.390Z,21.63
2022-07-30T06:36:01.596Z,16.30
2022-07-30T06:38:33.545Z,17.00
2022-07-30T06:41:08.887Z,17.17
2022-07-30T06:43:51.673Z,14.73
2022-07-30T06:46:44.629Z,20.53
2022-07-30T06:49:12.572Z,15.53
2022-07-30T06:51:42.416Z,14.40
2022-07-30T06:54:09.780Z,13.40
2022-07-30T06:56:37.362Z,12.30
2022-07-30T06:59:06.966Z,16.50
2022-07-30T07:01:54.328Z,10.57
2022-07-30T07:04:23.259Z,10.13
2022-07-30T07:06:50.372Z,15.60
2022-07-30T07:09:26.203Z,10.60
2022-07-30T07:12:15.516Z,10.27
2022-07-30T07:14:44.288Z,18.60
2022-07-30T07:17:11.624Z,11.07
2022-07-30T07:19:59.782Z,11.00
2022-07-30T07:22:30.896Z,8.53
2022-07-30T07:24:57.848Z,9.63
2022-07-30T07:27:28.871Z,8.80
2022-07-30T07:30:01.271Z,9.30
2022-07-30T07:32:34.388Z,9.90
2022-07-30T07:35:02.276Z,11.83
2022-07-30T07:37:30.108Z,13.00
2022-07-30T07:39:57.612Z,8.57
2022-07-30T07:42:24.631Z,9.60
2022-07-30T07:44:52.732Z,10.60
2022-07-30T07:47:19.745Z,8.37
2022-07-30T07:50:01.891Z,8.87
2022-07-30T07:52:29.830Z,8.33
2022-07-30T07:54:56.704Z,9.13
2022-07-30T07:57:24.262Z,9.10
2022-07-30T07:59:54.362Z,8.93
2022-07-30T08:02:26.978Z,7.87
2022-07-30T08:05:06.806Z,11.53
2022-07-30T08:08:03.006Z,7.50
2022-07-30T08:10:48.523Z,7.10
2022-07-30T08:13:52.201Z,6.17
2022-07-30T08:16:51.483Z,6.50
2022-07-30T08:19:34.163Z,6.40
2022-07-30T08:22:12.790Z,11.90
2022-07-30T08:24:40.569Z,5.88
2022-07-30T08:27:07.488Z,5.85
2022-07-30T08:29:34.813Z,5.28
2022-07-30T08:32:03.566Z,7.13
2022-07-30T08:34:30.852Z,5.93
2022-07-30T08:36:58.278Z,7.03
2022-07-30T08:39:26.112Z,5.33
2022-07-30T08:41:53.089Z,6.23
2022-07-30T08:44:21.874Z,5.77
2022-07-30T08:46:56.225Z,5.27
2022-07-30T08:49:29.186Z,5.47
2022-07-30T08:51:56.793Z,6.07
2022-07-30T08:54:49.501Z,9.30
2022-07-30T08:57:16.606Z,5.60
2022-07-30T09:00:00.080Z,19.93
2022-07-30T09:02:31.701Z,6.77
2022-07-30T09:05:03.987Z,7.67
2022-07-30T09:07:33.754Z,6.87
2022-07-30T09:10:02.453Z,5.83
2022-07-30T09:12:42.261Z,5.80
2022-07-30T09:15:16.434Z,7.37
2022-07-30T09:17:52.369Z,6.40
2022-07-30T09:20:23.952Z,6.33
2022-07-30T09:22:56.879Z,6.10
2022-07-30T09:25:48.049Z,6.97
2022-07-30T09:28:34.447Z,9.03
2022-07-30T09:31:21.512Z,6.10
2022-07-30T09:34:25.227Z,4.07
2022-07-30T09:36:52.195Z,5.77
2022-07-30T09:39:41.033Z,4.83
2022-07-30T09:42:20.702Z,4.43
2022-07-30T09:44:48.749Z,4.27
2022-07-30T09:47:35.439Z,4.03
2022-07-30T09:50:08.509Z,4.47
2022-07-30T09:52:36.984Z,4.97
2022-07-30T09:55:13.060Z,4.50
2022-07-30T09:57:59.602Z,5.40
2022-07-30T10:00:30.984Z,6.43
2022-07-30T10:03:33.037Z,5.10
2022-07-30T10:06:31.785Z,8.63
2022-07-30T10:08:59.339Z,3.83
2022-07-30T10:11:31.270Z,3.00
2022-07-30T10:14:01.581Z,7.10
2022-07-30T10:16:29.834Z,2.90
2022-07-30T10:19:01.958Z,4.33
2022-07-30T10:21:50.877Z,2.93
2022-07-30T10:24:37.214Z,4.63
2022-07-30T10:27:21.023Z,6.00
2022-07-30T10:30:19.665Z,2.70
2022-07-30T10:32:56.573Z,2.93
2022-07-30T10:35:31.309Z,2.73
2022-07-30T10:38:09.463Z,2.70
2022-07-30T10:40:50.468Z,2.87
2022-07-30T10:43:23.557Z,3.10
2022-07-30T10:46:25.857Z,8.10
2022-07-30T10:48:55.636Z,9.33
2022-07-30T10:51:43.668Z,7.23
2022-07-30T10:54:39.784Z,3.83
2022-07-30T10:57:08.698Z,2.20
2022-07-30T10:59:57.649Z,2.93
2022-07-30T11:02:28.706Z,6.40
2022-07-30T11:05:18.409Z,3.70
2022-07-30T11:07:48.850Z,3.10
2022-07-30T11:10:41.239Z,2.87
2022-07-30T11:13:10.956Z,2.37
2022-07-30T11:15:57.903Z,4.33
2022-07-30T11:18:27.438Z,4.70
2022-07-30T11:21:20.728Z,3.50
2022-07-30T11:23:54.940Z,2.10
2022-07-30T11:26:38.900Z,2.40
2022-07-30T11:29:32.989Z,2.23
2022-07-30T11:32:26.817Z,4.03
2022-07-30T11:35:13.354Z,2.37
2022-07-30T11:38:08.997Z,1.80
2022-07-30T11:41:01.559Z,2.53
2022-07-30T11:43:34.759Z,1.40
2022-07-30T11:46:28.679Z,2.83
2022-07-30T11:49:02.688Z,4.07
2022-07-30T11:51:44.771Z,1.80
2022-07-30T11:54:12.604Z,5.00
2022-07-30T11:57:04.090Z,4.93
2022-07-30T11:59:31.528Z,3.20
2022-07-30T12:02:01.843Z,2.47
2022-07-30T12:04:29.749Z,3.20
2022-07-30T12:06:56.612Z,1.47
2022-07-30T12:09:28.857Z,1.47
2022-07-30T12:11:57.378Z,3.37
2022-07-30T12:14:24.720Z,5.37
2022-07-30T12:16:55.071Z,3.10
2022-07-30T12:19:22.032Z,3.23
2022-07-30T12:21:53.011Z,6.13
2022-07-30T12:24:26.339Z,2.80
2022-07-30T12:27:03.669Z,4.40
2022-07-30T12:29:32.286Z,3.60
2022-07-30T12:31:59.253Z,3.13
2022-07-30T12:34:27.684Z,1.43
2022-07-30T12:36:55.012Z,2.57
2022-07-30T12:39:24.351Z,1.57
2022-07-30T12:41:53.433Z,1.50
2022-07-30T12:44:40.427Z,2.60
2022-07-30T12:47:20.199Z,2.27
2022-07-30T12:49:49.591Z,1.97
2022-07-30T12:52:29.163Z,11.77
2022-07-30T12:55:04.051Z,1.70
2022-07-30T12:57:52.665Z,2.67
2022-07-30T13:00:19.794Z,2.50
2022-07-30T13:02:46.929Z,2.33
2022-07-30T13:05:13.914Z,2.40
2022-07-30T13:07:54.481Z,1.73
2022-07-30T13:10:21.569Z,2.17
2022-07-30T13:12:48.490Z,1.90
2022-07-30T13:15:22.539Z,3.03
2022-07-30T13:17:49.795Z,5.13
2022-07-30T13:20:17.753Z,2.80
2022-07-30T13:22:45.371Z,1.90
2022-07-30T13:25:13.049Z,3.63
2022-07-30T13:27:40.093Z,3.63
2022-07-30T13:30:07.585Z,5.73
2022-07-30T13:32:34.613Z,6.70
2022-07-30T13:35:01.937Z,6.30
2022-07-30T13:37:38.068Z,4.57
2022-07-30T13:40:06.637Z,2.10
2022-07-30T13:42:33.531Z,2.27
2022-07-30T13:45:00.774Z,1.63
2022-07-30T13:47:27.647Z,1.50
2022-07-30T13:49:54.550Z,2.47
2022-07-30T13:52:21.486Z,2.50
2022-07-30T13:54:50.777Z,2.20
2022-07-30T13:57:18.204Z,5.07
2022-07-30T13:59:45.090Z,2.00
2022-07-30T14:02:12.056Z,2.30
2022-07-30T14:04:39.049Z,4.70
2022-07-30T14:07:06.093Z,1.97
2022-07-30T14:09:33.201Z,2.90
2022-07-30T14:12:11.487Z,2.03
2022-07-30T14:14:38.553Z,3.50
2022-07-30T14:17:05.474Z,3.10
2022-07-30T14:19:32.402Z,2.10
2022-07-30T14:21:59.227Z,2.70
2022-07-30T14:24:26.178Z,5.70
2022-07-30T14:26:57.755Z,4.50
2022-07-30T14:29:26.457Z,2.83
2022-07-30T14:31:53.733Z,2.57
2022-07-30T14:34:20.756Z,3.93
2022-07-30T14:36:47.594Z,2.20
2022-07-30T14:39:14.909Z,2.23
2022-07-30T14:41:43.097Z,3.00
2022-07-30T14:44:12.309Z,2.50
2022-07-30T14:46:52.003Z,2.57
2022-07-30T14:49:20.941Z,1.53
2022-07-30T14:51:47.873Z,1.80
2022-07-30T14:54:14.970Z,9.00
2022-07-30T14:56:42.057Z,4.60
2022-07-30T14:59:09.091Z,2.63
2022-07-30T15:01:36.034Z,3.60
2022-07-30T15:04:03.405Z,5.10
2022-07-30T15:06:30.399Z,2.13
2022-07-30T15:08:57.304Z,3.43
2022-07-30T15:11:24.471Z,2.50
2022-07-30T15:13:52.600Z,2.40
2022-07-30T15:16:20.118Z,2.07
2022-07-30T15:18:47.360Z,2.00
2022-07-30T15:21:14.365Z,3.27
2022-07-30T15:23:41.441Z,1.90
2022-07-30T15:26:08.386Z,2.53
2022-07-30T15:28:35.353Z,2.63
2022-07-30T15:31:02.989Z,16.27
2022-07-30T15:33:30.542Z,2.50
2022-07-30T15:36:03.301Z,2.77
2022-07-30T15:38:30.153Z,5.33
2022-07-30T15:40:57.099Z,9.77
2022-07-30T15:43:23.952Z,3.57
2022-07-30T15:45:55.976Z,5.27
2022-07-30T15:48:27.060Z,1.80
2022-07-30T15:51:02.090Z,4.07
2022-07-30T15:53:31.173Z,3.30
2022-07-30T15:55:59.190Z,2.50
2022-07-30T15:58:26.248Z,2.10
2022-07-30T16:00:53.471Z,7.43
2022-07-30T16:03:20.444Z,5.77
2022-07-30T16:05:52.844Z,6.20
2022-07-30T16:08:23.055Z,3.17
2022-07-30T16:10:51.929Z,3.33
2022-07-30T16:13:19.476Z,3.47
2022-07-30T16:15:46.442Z,2.53
2022-07-30T16:18:13.322Z,2.80
2022-07-30T16:20:40.856Z,2.27
2022-07-30T16:23:13.149Z,7.90
2022-07-30T16:25:41.922Z,2.30
2022-07-30T16:28:08.993Z,1.80
2022-07-30T16:30:49.033Z,1.93
2022-07-30T16:33:19.599Z,2.40
2022-07-30T16:35:50.970Z,3.30
2022-07-30T16:38:20.545Z,2.23
2022-07-30T16:40:52.026Z,2.73
2022-07-30T16:43:22.149Z,2.23
2022-07-30T16:45:55.561Z,2.43
2022-07-30T16:48:22.476Z,2.07
2022-07-30T16:50:49.438Z,3.47
2022-07-30T16:53:16.640Z,3.50
2022-07-30T16:55:44.536Z,2.80
2022-07-30T16:58:11.993Z,2.70
2022-07-30T17:00:40.044Z,2.37
2022-07-30T17:03:07.085Z,5.97
2022-07-30T17:05:34.334Z,4.60
2022-07-30T17:08:01.367Z,2.47
2022-07-30T17:10:28.275Z,11.83
2022-07-30T17:12:57.172Z,3.10
2022-07-30T17:15:32.397Z,2.73
2022-07-30T17:18:00.849Z,6.63
2022-07-30T17:20:28.559Z,6.03
2022-07-30T17:22:56.204Z,3.40
2022-07-30T17:25:27.573Z,3.33
2022-07-30T17:28:01.568Z,2.50
2022-07-30T17:30:29.884Z,2.40
2022-07-30T17:33:00.113Z,2.83
2022-07-30T17:35:27.030Z,8.90
2022-07-30T17:37:54.057Z,3.00
2022-07-30T17:40:28.288Z,2.70
2022-07-30T17:43:03.848Z,2.80
2022-07-30T17:45:33.108Z,4.17
2022-07-30T17:48:01.708Z,2.77
2022-07-30T17:50:30.360Z,2.73
2022-07-30T17:52:57.277Z,2.50
2022-07-30T17:55:25.042Z,2.70
2022-07-30T17:57:51.983Z,2.87
2022-07-30T18:00:18.906Z,3.00
2022-07-30T18:02:46.028Z,3.10
2022-07-30T18:05:15.570Z,3.57
2022-07-30T18:07:43.669Z,12.97
2022-07-30T18:10:11.677Z,2.57
2022-07-30T18:12:38.789Z,6.53
2022-07-30T18:15:15.960Z,2.80
2022-07-30T18:17:42.818Z,3.87
2022-07-30T18:20:10.134Z,3.60
2022-07-30T18:22:37.047Z,3.47
2022-07-30T18:25:07.596Z,6.70
2022-07-30T18:27:35.055Z,2.93
2022-07-30T18:30:01.955Z,5.50
2022-07-30T18:32:28.947Z,3.13
2022-07-30T18:34:55.942Z,4.30
2022-07-30T18:37:22.858Z,5.83
2022-07-30T18:39:49.735Z,2.80
2022-07-30T18:42:16.828Z,2.73
2022-07-30T18:44:47.110Z,3.37
2022-07-30T18:47:14.248Z,3.40
2022-07-30T18:49:41.152Z,3.43
2022-07-30T18:52:08.486Z,2.47
2022-07-30T18:54:36.847Z,2.67
2022-07-30T18:57:05.026Z,6.00
2022-07-30T18:59:32.058Z,3.13
2022-07-30T19:01:58.894Z,26.87
2022-07-30T19:04:26.515Z,3.50
2022-07-30T19:06:53.367Z,3.57
2022-07-30T19:09:20.291Z,4.80
2022-07-30T19:11:47.161Z,3.50
2022-07-30T19:14:14.595Z,2.40
2022-07-30T19:16:42.998Z,15.53
2022-07-30T19:19:10.442Z,6.13
2022-07-30T19:21:37.410Z,3.50
2022-07-30T19:24:04.747Z,3.30
2022-07-30T19:26:31.957Z,2.63
2022-07-30T19:28:58.974Z,3.13
2022-07-30T19:31:26.804Z,53.70
2022-07-30T19:33:53.771Z,5.83
2022-07-30T19:36:21.387Z,5.20
2022-07-30T19:38:50.102Z,5.50
2022-07-30T19:41:17.019Z,3.30
2022-07-30T19:43:57.662Z,3.70
2022-07-30T19:46:25.297Z,3.73
2022-07-30T19:48:52.404Z,3.60
2022-07-30T19:51:20.489Z,6.23
2022-07-30T19:53:48.124Z,3.10
2022-07-30T19:56:14.986Z,3.63
2022-07-30T19:58:42.017Z,7.60
2022-07-30T20:01:10.192Z,3.23
2022-07-30T20:03:39.038Z,5.90
2022-07-30T20:06:07.765Z,2.73
2022-07-30T20:08:36.403Z,2.60
2022-07-30T20:11:07.030Z,2.83
2022-07-30T20:13:44.485Z,10.33
2022-07-30T20:16:14.969Z,12.33
2022-07-30T20:18:42.958Z,4.23
2022-07-30T20:21:15.114Z,5.17
2022-07-30T20:23:43.613Z,3.37
2022-07-30T20:26:13.697Z,4.00
2022-07-30T20:28:42.034Z,3.97
2022-07-30T20:31:09.056Z,3.50
2022-07-30T20:33:39.151Z,4.33
2022-07-30T20:36:09.587Z,6.70
2022-07-30T20:38:39.022Z,4.33
2022-07-30T20:41:10.065Z,3.40
2022-07-30T20:43:54.959Z,4.43
2022-07-30T20:46:22.987Z,2.83
2022-07-30T20:48:52.009Z,3.17
2022-07-30T20:51:19.012Z,2.97
2022-07-30T20:53:45.961Z,3.30
2022-07-30T20:56:14.860Z,5.80
2022-07-30T20:58:45.961Z,2.57
2022-07-30T21:01:17.309Z,5.03
2022-07-30T21:03:47.603Z,4.00
2022-07-30T21:06:15.170Z,3.33
2022-07-30T21:08:41.966Z,3.63
2022-07-30T21:11:09.693Z,4.10
2022-07-30T21:13:37.063Z,3.20
2022-07-30T21:16:15.424Z,3.00
2022-07-30T21:18:49.934Z,3.90
2022-07-30T21:21:17.996Z,4.57
2022-07-30T21:23:58.585Z,3.50
2022-07-30T21:26:30.110Z,2.53
2022-07-30T21:29:00.802Z,3.87
2022-07-30T21:32:00.323Z,3.17
2022-07-30T21:34:14.962Z,3.53
2022-07-30T21:36:43.148Z,3.13
2022-07-30T21:39:10.090Z,4.10
2022-07-30T21:41:41.171Z,3.23
2022-07-30T21:44:09.829Z,5.87
2022-07-30T21:46:38.063Z,5.00
2022-07-30T21:49:07.237Z,3.57
2022-07-30T21:51:34.864Z,3.73
2022-07-30T21:54:01.798Z,3.43
2022-07-30T21:56:34.023Z,4.10
2022-07-30T21:59:00.849Z,3.77
2022-07-30T22:01:27.701Z,5.77
2022-07-30T22:04:01.528Z,3.23
2022-07-30T22:06:37.814Z,3.50
2022-07-30T22:09:26.315Z,9.83
2022-07-30T22:11:55.030Z,3.07
2022-07-30T22:14:22.619Z,3.27
2022-07-30T22:16:49.582Z,2.63
2022-07-30T22:19:17.195Z,2.43
2022-07-30T22:21:46.580Z,3.97
2022-07-30T22:24:29.853Z,2.30
2022-07-30T22:27:00.031Z,3.30
2022-07-30T22:29:34.402Z,7.77
2022-07-30T22:32:04.051Z,7.23
2022-07-30T22:34:31.689Z,2.77
2022-07-30T22:36:58.700Z,3.60
2022-07-30T22:39:32.121Z,3.50
2022-07-30T22:42:13.021Z,5.33
2022-07-30T22:44:39.902Z,3.57
2022-07-30T22:47:18.984Z,5.00
2022-07-30T22:49:52.952Z,3.97
2022-07-30T22:52:24.524Z,3.30
2022-07-30T22:54:52.563Z,6.00
2022-07-30T22:57:23.009Z,3.13
2022-07-30T23:00:00.013Z,5.13
2022-07-30T23:02:28.669Z,3.87
2022-07-30T23:04:56.280Z,3.60
2022-07-30T23:07:23.628Z,3.70
2022-07-30T23:10:17.054Z,3.77
2022-07-30T23:12:48.426Z,3.60
2022-07-30T23:15:15.532Z,4.27
2022-07-30T23:17:43.614Z,4.43
2022-07-30T23:20:14.785Z,4.07
2022-07-30T23:22:41.826Z,3.90
2022-07-30T23:25:12.886Z,4.03
2022-07-30T23:27:40.570Z,4.27
2022-07-30T23:30:08.829Z,3.90
2022-07-30T23:32:36.690Z,4.00
2022-07-30T23:35:04.329Z,21.13
2022-07-30T23:37:47.678Z,4.20
2022-07-30T23:40:17.498Z,3.80
2022-07-30T23:42:44.500Z,4.13
2022-07-30T23:45:11.645Z,3.97
2022-07-30T23:48:00.585Z,3.97
2022-07-30T23:50:25.534Z,3.70
2022-07-30T23:52:52.354Z,3.90
2022-07-30T23:55:19.274Z,3.77
2022-07-30T23:57:46.180Z,4.07
